createdAt,value
2019-04-06T00:00:22.270Z,6.80
2019-04-06T00:02:51.582Z,6.90
2019-04-06T00:05:20.941Z,7.00
2019-04-06T00:07:50.253Z,7.10
2019-04-06T00:10:19.533Z,7.10
2019-04-06T00:12:48.821Z,7.10
2019-04-06T00:15:18.093Z,7.20
2019-04-06T00:17:47.401Z,7.30
2019-04-06T00:20:16.957Z,7.30
2019-04-06T00:22:46.254Z,7.20
2019-04-06T00:25:15.461Z,7.10
2019-04-06T00:27:44.743Z,7.00
2019-04-06T00:30:14.469Z,7.00
2019-04-06T00:32:51.125Z,7.00
2019-04-06T00:35:20.435Z,7.10
2019-04-06T00:37:49.733Z,7.00
2019-04-06T00:40:19.067Z,7.00
2019-04-06T00:42:48.374Z,7.10
2019-04-06T00:45:17.709Z,7.00
2019-04-06T00:47:47.027Z,7.00
2019-04-06T00:50:16.522Z,6.90
2019-04-06T00:52:45.946Z,6.90
2019-04-06T00:55:15.410Z,6.90
2019-04-06T00:57:44.769Z,7.00
2019-04-06T01:00:14.379Z,7.00
2019-04-06T01:02:43.830Z,6.90
2019-04-06T01:05:13.238Z,6.90
2019-04-06T01:07:42.534Z,7.00
2019-04-06T01:10:12.313Z,6.90
2019-04-06T01:12:41.929Z,6.80
2019-04-06T01:15:11.954Z,6.90
2019-04-06T01:17:41.163Z,6.90
2019-04-06T01:20:10.609Z,6.90
2019-04-06T01:22:40.078Z,6.90
2019-04-06T01:25:09.679Z,6.90
2019-04-06T01:27:38.892Z,6.90
2019-04-06T01:30:08.533Z,6.90
2019-04-06T01:32:38.181Z,7.00
2019-04-06T01:35:07.540Z,7.00
2019-04-06T01:37:36.804Z,7.00
2019-04-06T01:40:06.427Z,6.90
2019-04-06T01:42:35.732Z,6.90
2019-04-06T01:45:05.394Z,6.80
2019-04-06T01:47:34.597Z,6.80
2019-04-06T01:50:04.008Z,6.80
2019-04-06T01:52:33.293Z,6.80
2019-04-06T01:55:02.586Z,6.70
2019-04-06T01:57:31.877Z,6.60
2019-04-06T02:00:01.201Z,6.70
2019-04-06T02:02:32.937Z,6.80
2019-04-06T02:05:02.259Z,6.90
2019-04-06T02:07:32.187Z,6.90
2019-04-06T02:10:01.552Z,7.00
2019-04-06T02:12:30.901Z,6.90
2019-04-06T02:15:00.116Z,6.90
2019-04-06T02:17:29.449Z,6.90
2019-04-06T02:19:58.794Z,6.80
2019-04-06T02:22:28.031Z,6.80
2019-04-06T02:24:57.337Z,6.80
2019-04-06T02:27:26.701Z,6.80
2019-04-06T02:30:20.252Z,6.80
2019-04-06T02:33:14.083Z,6.80
2019-04-06T02:35:56.350Z,6.80
2019-04-06T02:38:50.708Z,6.80
2019-04-06T02:41:37.422Z,6.80
2019-04-06T02:44:06.777Z,6.70
2019-04-06T02:46:36.057Z,6.70
2019-04-06T02:49:05.469Z,6.80
2019-04-06T02:51:35.012Z,6.90
2019-04-06T02:54:04.449Z,7.00
2019-04-06T02:56:45.538Z,6.80
2019-04-06T02:59:04.981Z,6.80
2019-04-06T03:01:34.317Z,6.70
2019-04-06T03:04:03.621Z,6.60
2019-04-06T03:06:32.904Z,6.60
2019-04-06T03:09:02.282Z,6.70
2019-04-06T03:11:31.608Z,6.70
2019-04-06T03:14:01.119Z,6.70
2019-04-06T03:16:31.127Z,6.60
2019-04-06T03:19:00.730Z,6.70
2019-04-06T03:21:30.085Z,6.70
2019-04-06T03:23:59.390Z,6.70
2019-04-06T03:26:28.700Z,6.80
2019-04-06T03:28:58.372Z,6.70
2019-04-06T03:31:28.074Z,6.70
2019-04-06T03:33:57.886Z,6.60
2019-04-06T03:36:27.210Z,6.60
2019-04-06T03:38:56.533Z,6.60
2019-04-06T03:41:25.879Z,6.70
2019-04-06T03:43:55.481Z,6.80
2019-04-06T03:46:25.068Z,6.80
2019-04-06T03:48:54.366Z,6.80
2019-04-06T03:51:23.742Z,6.90
2019-04-06T03:53:53.231Z,6.90
2019-04-06T03:56:22.626Z,6.80
2019-04-06T03:58:52.650Z,6.80
2019-04-06T04:01:22.128Z,6.90
2019-04-06T04:03:51.455Z,6.80
2019-04-06T04:06:20.819Z,6.80
2019-04-06T04:08:50.201Z,6.80
2019-04-06T04:11:19.805Z,6.70
2019-04-06T04:13:49.150Z,6.60
2019-04-06T04:16:18.442Z,6.70
2019-04-06T04:18:47.846Z,6.70
2019-04-06T04:21:17.205Z,6.70
2019-04-06T04:23:46.493Z,6.80
2019-04-06T04:26:16.034Z,6.80
2019-04-06T04:28:45.399Z,6.80
2019-04-06T04:31:14.698Z,6.70
2019-04-06T04:33:44.025Z,6.60
2019-04-06T04:36:13.472Z,6.50
2019-04-06T04:38:42.847Z,6.60
2019-04-06T04:41:12.226Z,6.80
2019-04-06T04:43:41.541Z,6.70
2019-04-06T04:46:10.832Z,6.70
2019-04-06T04:48:40.124Z,6.80
2019-04-06T04:51:09.476Z,6.80
2019-04-06T04:53:38.749Z,6.90
2019-04-06T04:56:07.948Z,6.70
2019-04-06T04:58:37.270Z,6.70
2019-04-06T05:01:06.481Z,6.80
2019-04-06T05:03:35.788Z,6.80
2019-04-06T05:06:05.080Z,6.80
2019-04-06T05:08:34.398Z,6.80
2019-04-06T05:11:03.836Z,6.80
2019-04-06T05:13:33.468Z,6.70
2019-04-06T05:16:12.671Z,6.60
2019-04-06T05:18:42.852Z,6.60
2019-04-06T05:21:13.371Z,6.60
2019-04-06T05:23:42.676Z,6.60
2019-04-06T05:26:23.077Z,6.60
2019-04-06T05:28:52.535Z,6.60
2019-04-06T05:31:21.872Z,6.60
2019-04-06T05:33:51.173Z,6.70
2019-04-06T05:36:20.650Z,6.70
2019-04-06T05:38:49.947Z,6.80
2019-04-06T05:41:19.269Z,6.80
2019-04-06T05:43:48.760Z,7.00
2019-04-06T05:46:18.089Z,7.10
2019-04-06T05:48:47.442Z,7.10
2019-04-06T05:51:16.699Z,7.00
2019-04-06T05:53:46.009Z,7.00
2019-04-06T05:56:15.315Z,6.90
2019-04-06T05:58:44.782Z,7.10
2019-04-06T06:01:14.217Z,7.10
2019-04-06T06:03:43.584Z,7.10
2019-04-06T06:06:13.355Z,7.20
2019-04-06T06:08:42.745Z,7.20
2019-04-06T06:11:12.057Z,7.30
2019-04-06T06:13:41.660Z,7.40
2019-04-06T06:16:12.239Z,7.50
2019-04-06T06:18:41.589Z,7.50
2019-04-06T06:21:10.856Z,7.50
2019-04-06T06:23:40.157Z,7.60
2019-04-06T06:26:09.486Z,7.50
2019-04-06T06:28:38.695Z,7.50
2019-04-06T06:31:07.981Z,7.50
2019-04-06T06:33:37.314Z,7.60
2019-04-06T06:36:06.661Z,7.80
2019-04-06T06:38:35.902Z,7.70
2019-04-06T06:41:05.440Z,7.90
2019-04-06T06:43:34.776Z,8.00
2019-04-06T06:46:04.214Z,8.10
2019-04-06T06:48:33.570Z,8.10
2019-04-06T06:51:02.952Z,8.10
2019-04-06T06:53:32.413Z,8.20
2019-04-06T06:56:01.861Z,8.30
2019-04-06T06:58:31.287Z,8.40
2019-04-06T07:01:03.050Z,8.50
2019-04-06T07:03:31.715Z,8.70
2019-04-06T07:06:01.164Z,8.80
2019-04-06T07:08:35.454Z,8.80
2019-04-06T07:11:04.903Z,8.90
2019-04-06T07:13:34.612Z,9.00
2019-04-06T07:16:04.577Z,9.20
2019-04-06T07:18:33.990Z,9.20
2019-04-06T07:21:03.274Z,8.90
2019-04-06T07:23:32.505Z,8.80
2019-04-06T07:26:02.148Z,8.80
2019-04-06T07:28:37.523Z,8.90
2019-04-06T07:31:02.582Z,8.90
2019-04-06T07:33:32.089Z,9.10
2019-04-06T07:36:01.676Z,9.30
2019-04-06T07:38:31.015Z,9.40
2019-04-06T07:41:00.587Z,9.60
2019-04-06T07:43:30.006Z,9.60
2019-04-06T07:45:59.570Z,9.70
2019-04-06T07:48:29.536Z,9.90
2019-04-06T07:50:58.883Z,10.20
2019-04-06T07:53:28.217Z,10.50
2019-04-06T07:55:57.614Z,10.80
2019-04-06T07:58:27.550Z,11.10
2019-04-06T08:00:56.855Z,11.00
2019-04-06T08:03:26.152Z,11.20
2019-04-06T08:05:55.590Z,11.30
2019-04-06T08:08:24.788Z,11.60
2019-04-06T08:10:54.015Z,12.00
2019-04-06T08:13:23.376Z,12.10
2019-04-06T08:15:52.699Z,12.20
2019-04-06T08:18:21.993Z,12.40
2019-04-06T08:20:51.723Z,12.10
2019-04-06T08:23:21.196Z,12.20
2019-04-06T08:25:50.530Z,12.50
2019-04-06T08:28:19.902Z,12.90
2019-04-06T08:30:49.206Z,13.20
2019-04-06T08:33:18.536Z,13.30
2019-04-06T08:35:47.811Z,13.50
2019-04-06T08:38:17.144Z,13.20
2019-04-06T08:40:46.811Z,13.00
2019-04-06T08:43:16.128Z,12.80
2019-04-06T08:45:45.530Z,13.10
2019-04-06T08:48:15.208Z,13.30
2019-04-06T08:50:44.531Z,13.00
2019-04-06T08:53:14.321Z,13.00
2019-04-06T08:55:43.621Z,13.00
2019-04-06T08:58:13.789Z,12.80
2019-04-06T09:00:43.076Z,12.40
2019-04-06T09:03:12.442Z,12.10
2019-04-06T09:05:41.819Z,12.40
2019-04-06T09:08:11.227Z,12.60
2019-04-06T09:10:40.583Z,12.40
2019-04-06T09:13:09.949Z,12.60
2019-04-06T09:15:39.488Z,12.60
2019-04-06T09:18:09.020Z,13.00
2019-04-06T09:20:38.578Z,13.10
2019-04-06T09:23:07.904Z,12.10
2019-04-06T09:25:37.220Z,12.40
2019-04-06T09:28:06.511Z,12.90
2019-04-06T09:30:36.007Z,12.60
2019-04-06T09:33:05.239Z,12.60
2019-04-06T09:35:34.632Z,12.60
2019-04-06T09:38:04.137Z,12.40
2019-04-06T09:40:34.314Z,12.70
2019-04-06T09:43:03.620Z,12.80
2019-04-06T09:45:55.982Z,13.30
2019-04-06T09:48:50.304Z,13.90
2019-04-06T09:51:37.616Z,14.40
2019-04-06T09:54:13.037Z,14.80
2019-04-06T09:56:52.099Z,14.80
2019-04-06T09:59:49.260Z,15.00
2019-04-06T10:02:36.259Z,15.00
2019-04-06T10:05:34.427Z,14.80
2019-04-06T10:08:21.272Z,14.80
2019-04-06T10:11:07.930Z,15.00
2019-04-06T10:14:05.319Z,15.70
2019-04-06T10:17:05.456Z,16.00
2019-04-06T10:20:01.612Z,15.70
2019-04-06T10:22:55.688Z,15.40
2019-04-06T10:25:47.196Z,16.00
2019-04-06T10:28:41.315Z,16.30
2019-04-06T10:31:21.707Z,16.70
2019-04-06T10:34:12.804Z,17.10
2019-04-06T10:36:55.556Z,17.20
2019-04-06T10:39:53.552Z,17.30
2019-04-06T10:42:41.973Z,17.10
2019-04-06T10:45:17.295Z,16.50
2019-04-06T10:47:53.261Z,16.10
2019-04-06T10:50:33.278Z,16.30
2019-04-06T10:53:21.533Z,16.10
2019-04-06T10:56:05.958Z,16.70
2019-04-06T10:58:52.764Z,17.20
2019-04-06T11:01:41.083Z,17.10
2019-04-06T11:04:18.475Z,17.20
2019-04-06T11:07:05.475Z,17.00
2019-04-06T11:09:52.917Z,16.60
2019-04-06T11:12:56.331Z,16.50
2019-04-06T11:15:53.560Z,16.40
2019-04-06T11:18:40.967Z,16.10
2019-04-06T11:21:29.357Z,16.50
2019-04-06T11:24:18.103Z,17.00
2019-04-06T11:27:09.799Z,17.70
2019-04-06T11:30:13.982Z,18.10
2019-04-06T11:32:58.338Z,17.70
2019-04-06T11:35:58.608Z,15.80
2019-04-06T11:38:35.679Z,16.30
2019-04-06T11:41:17.736Z,16.90
2019-04-06T11:43:57.196Z,17.90
2019-04-06T11:46:46.784Z,18.60
2019-04-06T11:49:29.206Z,18.50
2019-04-06T11:52:23.464Z,18.30
2019-04-06T11:55:12.930Z,18.30
2019-04-06T11:58:02.166Z,16.30
2019-04-06T12:00:53.029Z,17.00
2019-04-06T12:03:28.471Z,17.30
2019-04-06T12:06:13.935Z,17.50
2019-04-06T12:09:05.361Z,17.80
2019-04-06T12:11:56.699Z,17.90
2019-04-06T12:14:44.084Z,17.00
2019-04-06T12:17:28.945Z,17.60
2019-04-06T12:20:07.891Z,17.80
2019-04-06T12:22:56.601Z,17.20
2019-04-06T12:25:53.758Z,16.90
2019-04-06T12:28:39.619Z,17.40
2019-04-06T12:31:24.518Z,17.40
2019-04-06T12:34:08.167Z,17.50
2019-04-06T12:36:56.511Z,17.70
2019-04-06T12:39:53.018Z,17.70
2019-04-06T12:42:37.574Z,17.00
2019-04-06T12:45:26.259Z,17.50
2019-04-06T12:48:20.606Z,18.30
2019-04-06T12:51:17.718Z,18.00
2019-04-06T12:53:55.729Z,18.10
2019-04-06T12:56:52.821Z,17.80
2019-04-06T12:59:39.433Z,17.90
2019-04-06T13:02:24.100Z,18.10
2019-04-06T13:05:14.310Z,18.60
2019-04-06T13:08:01.175Z,18.90
2019-04-06T13:10:49.742Z,18.80
2019-04-06T13:13:25.143Z,19.10
2019-04-06T13:16:19.441Z,18.80
2019-04-06T13:18:55.962Z,17.70
2019-04-06T13:21:47.060Z,18.00
2019-04-06T13:24:55.916Z,18.80
2019-04-06T13:28:22.390Z,18.70
2019-04-06T13:31:05.415Z,19.20
2019-04-06T13:33:51.086Z,18.80
2019-04-06T13:36:43.005Z,18.70
2019-04-06T13:39:46.758Z,19.00
2019-04-06T13:42:34.717Z,19.20
2019-04-06T13:45:22.694Z,19.20
2019-04-06T13:48:01.667Z,19.10
2019-04-06T13:50:53.078Z,18.70
2019-04-06T13:53:41.588Z,18.70
2019-04-06T13:56:18.204Z,18.90
2019-04-06T13:59:19.142Z,18.50
2019-04-06T14:01:59.947Z,18.40
2019-04-06T14:04:54.239Z,18.10
2019-04-06T14:07:57.692Z,17.90
2019-04-06T14:10:42.139Z,17.60
2019-04-06T14:13:38.748Z,17.30
2019-04-06T14:16:29.867Z,17.10
2019-04-06T14:19:18.226Z,17.30
2019-04-06T14:21:56.506Z,17.20
2019-04-06T14:24:44.890Z,17.00
2019-04-06T14:27:45.712Z,16.90
2019-04-06T14:30:34.114Z,16.70
2019-04-06T14:33:13.132Z,16.60
2019-04-06T14:36:02.191Z,16.40
2019-04-06T14:39:06.417Z,16.60
2019-04-06T14:41:55.095Z,16.90
2019-04-06T14:44:52.542Z,16.90
2019-04-06T14:47:39.300Z,16.80
2019-04-06T14:50:27.698Z,16.80
2019-04-06T14:53:31.482Z,16.70
2019-04-06T14:56:07.227Z,16.60
2019-04-06T14:58:55.781Z,16.50
2019-04-06T15:01:51.597Z,16.60
2019-04-06T15:04:47.108Z,16.60
2019-04-06T15:07:34.020Z,16.70
2019-04-06T15:10:10.029Z,16.50
2019-04-06T15:12:56.934Z,16.40
2019-04-06T15:18:26.451Z,16.10
2019-04-06T15:21:02.809Z,16.20
2019-04-06T15:23:49.526Z,16.00
2019-04-06T15:26:43.059Z,15.90
2019-04-06T15:29:23.304Z,16.00
2019-04-06T15:32:05.829Z,16.20
2019-04-06T15:34:47.278Z,16.30
2019-04-06T15:37:23.376Z,16.20
2019-04-06T15:40:29.951Z,16.10
2019-04-06T15:43:18.802Z,16.10
2019-04-06T15:46:06.855Z,16.00
2019-04-06T15:48:50.237Z,16.10
2019-04-06T15:51:38.514Z,16.00
2019-04-06T15:54:22.699Z,16.00
2019-04-06T15:57:01.256Z,16.20
2019-04-06T15:59:48.209Z,16.10
2019-04-06T16:02:31.411Z,16.10
2019-04-06T16:05:13.638Z,15.90
2019-04-06T16:08:14.359Z,15.60
2019-04-06T16:11:02.660Z,15.70
2019-04-06T16:13:54.019Z,15.70
2019-04-06T16:16:32.669Z,15.50
2019-04-06T16:19:26.726Z,15.40
2019-04-06T16:22:18.693Z,15.50
2019-04-06T16:25:01.651Z,15.60
2019-04-06T16:28:08.466Z,15.60
2019-04-06T16:30:46.176Z,15.60
2019-04-06T16:33:25.092Z,15.30
2019-04-06T16:36:16.294Z,15.30
2019-04-06T16:39:13.510Z,15.10
2019-04-06T16:42:03.103Z,15.10
2019-04-06T16:44:43.417Z,15.00
2019-04-06T16:47:20.540Z,15.00
2019-04-06T16:50:02.322Z,14.90
2019-04-06T16:52:50.622Z,14.90
2019-04-06T16:55:45.361Z,14.60
2019-04-06T16:58:34.136Z,14.50
2019-04-06T17:01:33.097Z,14.40
2019-04-06T17:04:24.721Z,14.40
2019-04-06T17:07:06.235Z,14.40
2019-04-06T17:09:51.886Z,14.40
2019-04-06T17:12:43.586Z,14.40
2019-04-06T17:15:30.655Z,14.30
2019-04-06T17:18:11.191Z,14.10
2019-04-06T17:21:12.913Z,14.10
2019-04-06T17:24:01.408Z,14.10
2019-04-06T17:26:55.423Z,14.10
2019-04-06T17:29:43.692Z,14.00
2019-04-06T17:32:36.385Z,14.10
2019-04-06T17:35:10.695Z,13.90
2019-04-06T17:37:55.518Z,13.80
2019-04-06T17:40:48.386Z,13.70
2019-04-06T17:43:36.690Z,13.60
2019-04-06T17:46:40.182Z,13.50
2019-04-06T17:49:27.108Z,13.50
2019-04-06T17:52:35.853Z,13.40
2019-04-06T17:55:27.830Z,13.40
2019-04-06T17:58:19.169Z,13.40
2019-04-06T18:00:58.852Z,13.40
2019-04-06T18:03:53.214Z,13.50
2019-04-06T18:06:41.117Z,13.40
2019-04-06T18:09:33.203Z,13.40
2019-04-06T18:12:21.122Z,13.40
2019-04-06T18:14:51.856Z,13.30
2019-04-06T18:17:21.281Z,13.30
2019-04-06T18:19:54.080Z,13.20
2019-04-06T18:22:23.365Z,13.10
2019-04-06T18:24:53.301Z,13.00
2019-04-06T18:27:23.017Z,12.90
2019-04-06T18:29:52.416Z,12.80
2019-04-06T18:32:31.428Z,12.70
2019-04-06T18:35:02.012Z,12.50
2019-04-06T18:37:45.935Z,12.50
2019-04-06T18:40:34.170Z,12.40
2019-04-06T18:43:06.353Z,12.30
2019-04-06T18:45:36.170Z,12.20
2019-04-06T18:48:06.676Z,12.10
2019-04-06T18:50:38.798Z,11.90
2019-04-06T18:53:08.202Z,11.80
2019-04-06T18:55:37.910Z,11.70
2019-04-06T18:58:12.295Z,11.70
2019-04-06T19:00:40.533Z,11.60
2019-04-06T19:03:17.407Z,11.50
2019-04-06T19:05:43.338Z,11.40
2019-04-06T19:08:13.264Z,11.20
2019-04-06T19:10:43.627Z,11.20
2019-04-06T19:13:18.246Z,11.10
2019-04-06T19:15:47.866Z,11.10
2019-04-06T19:18:18.401Z,11.00
2019-04-06T19:20:48.412Z,11.00
2019-04-06T19:23:17.762Z,11.10
2019-04-06T19:25:48.641Z,11.10
2019-04-06T19:28:22.609Z,11.10
2019-04-06T19:30:52.128Z,11.00
2019-04-06T19:33:25.192Z,11.00
2019-04-06T19:35:53.610Z,11.10
2019-04-06T19:38:23.411Z,11.10
2019-04-06T19:40:53.006Z,11.20
2019-04-06T19:43:22.967Z,11.20
2019-04-06T19:45:54.014Z,11.20
2019-04-06T19:48:23.545Z,11.20
2019-04-06T19:50:53.241Z,11.30
2019-04-06T19:53:23.128Z,11.20
2019-04-06T19:55:52.443Z,11.10
2019-04-06T19:58:21.779Z,11.00
2019-04-06T20:00:52.184Z,11.00
2019-04-06T20:03:33.727Z,10.90
2019-04-06T20:05:53.729Z,10.80
2019-04-06T20:08:23.892Z,10.60
2019-04-06T20:10:53.297Z,10.60
2019-04-06T20:13:23.247Z,10.50
2019-04-06T20:15:53.046Z,10.50
2019-04-06T20:18:22.501Z,10.50
2019-04-06T20:20:51.881Z,10.40
2019-04-06T20:23:21.254Z,10.50
2019-04-06T20:25:51.205Z,10.50
2019-04-06T20:28:21.005Z,10.60
2019-04-06T20:30:50.744Z,10.50
2019-04-06T20:33:20.608Z,10.40
2019-04-06T20:35:50.530Z,10.40
2019-04-06T20:38:20.794Z,10.30
2019-04-06T20:40:50.278Z,10.30
2019-04-06T20:43:20.708Z,10.30
2019-04-06T20:45:51.197Z,10.20
2019-04-06T20:48:20.640Z,10.30
2019-04-06T20:50:50.732Z,10.20
2019-04-06T20:53:21.027Z,10.30
2019-04-06T20:55:50.910Z,10.20
2019-04-06T20:58:20.794Z,10.30
2019-04-06T21:00:52.901Z,10.30
2019-04-06T21:03:22.228Z,10.40
2019-04-06T21:05:53.301Z,10.50
2019-04-06T21:08:22.565Z,10.60
2019-04-06T21:10:52.129Z,10.60
2019-04-06T21:13:21.514Z,10.70
2019-04-06T21:15:53.059Z,10.70
2019-04-06T21:18:22.497Z,10.80
2019-04-06T21:20:54.317Z,10.70
2019-04-06T21:23:23.691Z,10.70
2019-04-06T21:25:53.146Z,10.70
2019-04-06T21:28:22.423Z,10.70
2019-04-06T21:30:52.230Z,10.70
2019-04-06T21:33:22.069Z,10.70
2019-04-06T21:35:51.698Z,10.70
2019-04-06T21:38:21.047Z,10.70
2019-04-06T21:40:50.397Z,10.70
2019-04-06T21:43:19.960Z,10.70
2019-04-06T21:45:49.973Z,10.80
2019-04-06T21:48:20.142Z,10.80
2019-04-06T21:50:49.465Z,10.70
2019-04-06T21:53:18.686Z,10.30
2019-04-06T21:55:48.328Z,10.10
2019-04-06T21:58:17.745Z,10.10
2019-04-06T22:00:50.056Z,10.20
2019-04-06T22:03:19.980Z,10.30
2019-04-06T22:05:50.499Z,10.30
2019-04-06T22:08:20.431Z,10.30
2019-04-06T22:10:50.233Z,10.10
2019-04-06T22:13:19.608Z,10.10
2019-04-06T22:15:49.053Z,10.20
2019-04-06T22:18:18.413Z,10.00
2019-04-06T22:20:47.748Z,10.00
2019-04-06T22:23:17.585Z,10.00
2019-04-06T22:25:47.127Z,9.90
2019-04-06T22:28:16.506Z,9.90
2019-04-06T22:30:45.986Z,9.90
2019-04-06T22:33:15.320Z,9.90
2019-04-06T22:35:45.124Z,9.90
2019-04-06T22:38:14.748Z,9.80
2019-04-06T22:40:44.502Z,9.70
2019-04-06T22:43:14.593Z,9.60
2019-04-06T22:45:43.936Z,9.40
2019-04-06T22:48:13.708Z,9.30
2019-04-06T22:50:43.076Z,9.30
2019-04-06T22:53:13.215Z,9.20
2019-04-06T22:55:42.978Z,9.00
2019-04-06T22:58:12.791Z,8.90
2019-04-06T23:00:48.512Z,8.70
2019-04-06T23:03:38.965Z,8.60
2019-04-06T23:06:11.666Z,8.60
2019-04-06T23:08:42.187Z,8.50
2019-04-06T23:11:11.717Z,8.40
2019-04-06T23:13:41.147Z,8.30
2019-04-06T23:16:10.590Z,8.20
2019-04-06T23:18:39.984Z,8.10
2019-04-06T23:21:09.698Z,8.20
2019-04-06T23:23:39.585Z,8.30
2019-04-06T23:26:09.054Z,8.20
2019-04-06T23:28:38.910Z,8.10
2019-04-06T23:31:08.247Z,8.00
2019-04-06T23:33:38.069Z,8.10
2019-04-06T23:36:07.824Z,8.10
2019-04-06T23:38:37.358Z,8.10
2019-04-06T23:41:07.222Z,8.10
2019-04-06T23:43:36.973Z,8.00
2019-04-06T23:46:06.408Z,7.90
2019-04-06T23:48:36.352Z,7.90
2019-04-06T23:51:06.310Z,7.80
2019-04-06T23:53:36.022Z,7.80
2019-04-06T23:56:05.530Z,7.80
2019-04-06T23:58:35.291Z,7.80
